sensor_id;sensor_type;location;lat;lon;timestamp;pressure;altitude;pressure_sealevel;temperature;humidity
63096;BME280;49184;55.596;37.770;2023-07-24T00:01:06;98967.22;;;15.83;80.21
63096;BME280;49184;55.596;37.770;2023-07-24T00:03:34;98981.34;;;15.81;80.19
63096;BME280;49184;55.596;37.770;2023-07-24T00:06:02;98971.03;;;15.78;80.45
63096;BME280;49184;55.596;37.770;2023-07-24T00:08:33;98977.16;;;15.71;80.76
63096;BME280;49184;55.596;37.770;2023-07-24T00:10:58;98986.50;;;15.67;80.81
63096;BME280;49184;55.596;37.770;2023-07-24T00:14:18;98988.16;;;15.56;81.54
63096;BME280;49184;55.596;37.770;2023-07-24T00:16:45;98984.88;;;15.50;81.54
63096;BME280;49184;55.596;37.770;2023-07-24T00:19:17;98974.66;;;15.50;81.76
63096;BME280;49184;55.596;37.770;2023-07-24T00:21:57;98981.50;;;15.57;81.59
63096;BME280;49184;55.596;37.770;2023-07-24T00:24:32;98972.50;;;15.44;81.87
63096;BME280;49184;55.596;37.770;2023-07-24T00:26:58;98981.13;;;15.42;81.95
63096;BME280;49184;55.596;37.770;2023-07-24T00:29:35;98972.75;;;15.39;82.24
63096;BME280;49184;55.596;37.770;2023-07-24T00:37:57;98970.63;;;15.32;82.27
63096;BME280;49184;55.596;37.770;2023-07-24T00:40:25;98973.63;;;15.27;82.39
63096;BME280;49184;55.596;37.770;2023-07-24T00:43:14;98968.84;;;15.24;82.53
63096;BME280;49184;55.596;37.770;2023-07-24T00:46:33;98967.50;;;15.18;82.59
63096;BME280;49184;55.596;37.770;2023-07-24T00:48:59;98972.44;;;15.12;82.67
63096;BME280;49184;55.596;37.770;2023-07-24T00:51:29;98972.00;;;15.10;82.93
63096;BME280;49184;55.596;37.770;2023-07-24T00:54:02;98973.94;;;15.10;82.78
63096;BME280;49184;55.596;37.770;2023-07-24T00:56:29;98969.25;;;15.10;82.68
63096;BME280;49184;55.596;37.770;2023-07-24T00:58:56;98966.94;;;15.12;82.47
63096;BME280;49184;55.596;37.770;2023-07-24T01:01:26;98968.78;;;15.08;82.44
63096;BME280;49184;55.596;37.770;2023-07-24T01:03:52;98966.03;;;15.08;82.43
63096;BME280;49184;55.596;37.770;2023-07-24T01:06:18;98954.56;;;15.06;82.55
63096;BME280;49184;55.596;37.770;2023-07-24T01:08:45;98958.94;;;15.07;82.32
63096;BME280;49184;55.596;37.770;2023-07-24T01:11:16;98958.94;;;15.07;82.50
63096;BME280;49184;55.596;37.770;2023-07-24T01:13:52;98957.69;;;15.04;82.36
63096;BME280;49184;55.596;37.770;2023-07-24T01:16:51;98959.19;;;15.02;82.31
63096;BME280;49184;55.596;37.770;2023-07-24T01:19:36;98964.34;;;15.03;82.20
63096;BME280;49184;55.596;37.770;2023-07-24T01:27:41;98961.84;;;14.98;82.33
63096;BME280;49184;55.596;37.770;2023-07-24T01:30:08;98960.59;;;14.96;82.13
63096;BME280;49184;55.596;37.770;2023-07-24T01:35:24;98969.34;;;14.86;82.56
63096;BME280;49184;55.596;37.770;2023-07-24T01:38:08;98968.22;;;14.87;82.27
63096;BME280;49184;55.596;37.770;2023-07-24T01:40:34;98965.47;;;14.87;82.12
63096;BME280;49184;55.596;37.770;2023-07-24T01:43:00;98973.72;;;14.87;81.88
63096;BME280;49184;55.596;37.770;2023-07-24T01:45:29;98971.16;;;14.94;81.77
63096;BME280;49184;55.596;37.770;2023-07-24T01:47:58;98975.03;;;14.93;81.38
63096;BME280;49184;55.596;37.770;2023-07-24T01:50:26;98971.06;;;14.90;81.45
63096;BME280;49184;55.596;37.770;2023-07-24T01:52:52;98965.28;;;14.95;81.55
63096;BME280;49184;55.596;37.770;2023-07-24T01:55:21;98954.97;;;14.92;81.31
63096;BME280;49184;55.596;37.770;2023-07-24T02:00:37;98964.97;;;14.97;81.00
63096;BME280;49184;55.596;37.770;2023-07-24T02:03:05;98961.13;;;15.01;80.92
63096;BME280;49184;55.596;37.770;2023-07-24T02:08:35;98963.03;;;15.13;80.18
63096;BME280;49184;55.596;37.770;2023-07-24T02:11:01;98966.22;;;15.15;80.18
63096;BME280;49184;55.596;37.770;2023-07-24T02:13:27;98962.06;;;15.21;80.50
63096;BME280;49184;55.596;37.770;2023-07-24T02:16:02;98969.97;;;15.23;80.30
63096;BME280;49184;55.596;37.770;2023-07-24T02:21:56;98977.19;;;15.27;80.77
63096;BME280;49184;55.596;37.770;2023-07-24T02:24:21;98969.34;;;15.30;80.45
63096;BME280;49184;55.596;37.770;2023-07-24T02:26:47;98968.66;;;15.33;80.12
63096;BME280;49184;55.596;37.770;2023-07-24T02:29:22;98973.81;;;15.34;80.28
63096;BME280;49184;55.596;37.770;2023-07-24T02:31:50;98965.66;;;15.38;79.86
63096;BME280;49184;55.596;37.770;2023-07-24T02:34:17;98976.59;;;15.50;79.53
63096;BME280;49184;55.596;37.770;2023-07-24T02:39:58;98975.91;;;15.53;78.23
63096;BME280;49184;55.596;37.770;2023-07-24T02:42:23;98969.41;;;15.61;78.35
63096;BME280;49184;55.596;37.770;2023-07-24T02:44:50;98974.22;;;15.64;77.95
63096;BME280;49184;55.596;37.770;2023-07-24T02:47:24;98963.31;;;15.68;77.80
63096;BME280;49184;55.596;37.770;2023-07-24T02:49:50;98979.50;;;15.69;76.99
63096;BME280;49184;55.596;37.770;2023-07-24T02:52:34;98972.63;;;15.79;77.16
63096;BME280;49184;55.596;37.770;2023-07-24T02:57:47;98979.38;;;15.82;77.25
63096;BME280;49184;55.596;37.770;2023-07-24T03:00:34;98980.56;;;15.81;76.47
63096;BME280;49184;55.596;37.770;2023-07-24T03:03:00;98985.19;;;15.77;76.26
63096;BME280;49184;55.596;37.770;2023-07-24T03:05:26;98981.25;;;15.78;76.86
63096;BME280;49184;55.596;37.770;2023-07-24T03:07:52;98973.63;;;15.87;76.21
63096;BME280;49184;55.596;37.770;2023-07-24T03:10:22;98976.72;;;15.85;76.65
63096;BME280;49184;55.596;37.770;2023-07-24T03:12:48;98976.00;;;15.88;76.31
63096;BME280;49184;55.596;37.770;2023-07-24T03:15:31;98981.59;;;15.92;76.33
63096;BME280;49184;55.596;37.770;2023-07-24T03:17:57;98982.50;;;15.96;75.75
63096;BME280;49184;55.596;37.770;2023-07-24T03:20:35;98980.34;;;16.05;75.64
63096;BME280;49184;55.596;37.770;2023-07-24T03:23:01;98980.50;;;16.12;75.92
63096;BME280;49184;55.596;37.770;2023-07-24T03:25:27;98977.50;;;16.17;75.79
63096;BME280;49184;55.596;37.770;2023-07-24T03:31:07;98978.34;;;16.37;75.84
63096;BME280;49184;55.596;37.770;2023-07-24T03:33:39;98979.44;;;16.52;75.05
63096;BME280;49184;55.596;37.770;2023-07-24T03:36:05;98970.44;;;16.55;75.24
63096;BME280;49184;55.596;37.770;2023-07-24T03:38:31;98972.72;;;16.69;75.18
63096;BME280;49184;55.596;37.770;2023-07-24T03:43:56;98975.91;;;16.71;73.33
63096;BME280;49184;55.596;37.770;2023-07-24T03:46:22;98979.06;;;16.70;73.89
63096;BME280;49184;55.596;37.770;2023-07-24T03:48:48;98975.50;;;16.69;73.52
63096;BME280;49184;55.596;37.770;2023-07-24T03:51:19;98986.53;;;16.69;74.42
63096;BME280;49184;55.596;37.770;2023-07-24T03:56:38;98983.06;;;16.72;74.69
63096;BME280;49184;55.596;37.770;2023-07-24T03:59:10;98983.22;;;16.79;73.54
63096;BME280;49184;55.596;37.770;2023-07-24T04:01:38;98984.03;;;16.80;73.00
63096;BME280;49184;55.596;37.770;2023-07-24T04:04:04;98984.44;;;16.82;73.27
63096;BME280;49184;55.596;37.770;2023-07-24T04:06:29;98982.94;;;16.84;72.95
63096;BME280;49184;55.596;37.770;2023-07-24T04:09:21;98985.19;;;16.79;73.46
63096;BME280;49184;55.596;37.770;2023-07-24T04:11:50;98979.28;;;16.80;73.50
63096;BME280;49184;55.596;37.770;2023-07-24T04:14:16;98991.13;;;16.81;73.09
63096;BME280;49184;55.596;37.770;2023-07-24T04:16:42;98995.00;;;16.76;72.67
63096;BME280;49184;55.596;37.770;2023-07-24T04:19:08;98991.13;;;16.81;73.25
63096;BME280;49184;55.596;37.770;2023-07-24T04:21:34;98989.25;;;16.85;73.83
63096;BME280;49184;55.596;37.770;2023-07-24T04:24:00;98988.53;;;16.88;73.00
63096;BME280;49184;55.596;37.770;2023-07-24T04:26:38;98991.00;;;16.93;73.41
63096;BME280;49184;55.596;37.770;2023-07-24T04:29:05;98989.03;;;16.94;73.18
63096;BME280;49184;55.596;37.770;2023-07-24T04:31:34;98987.53;;;16.96;73.47
63096;BME280;49184;55.596;37.770;2023-07-24T04:34:03;98988.91;;;17.06;73.23
63096;BME280;49184;55.596;37.770;2023-07-24T04:36:30;98983.00;;;17.07;73.68
63096;BME280;49184;55.596;37.770;2023-07-24T04:38:56;98983.06;;;17.11;73.19
63096;BME280;49184;55.596;37.770;2023-07-24T04:41:22;98977.59;;;17.14;72.63
63096;BME280;49184;55.596;37.770;2023-07-24T04:43:48;98981.38;;;17.26;73.18
63096;BME280;49184;55.596;37.770;2023-07-24T04:46:13;98975.19;;;17.32;72.84
63096;BME280;49184;55.596;37.770;2023-07-24T04:48:41;98977.72;;;17.41;72.36
63096;BME280;49184;55.596;37.770;2023-07-24T04:51:07;98971.22;;;17.53;69.50
63096;BME280;49184;55.596;37.770;2023-07-24T04:54:04;98963.56;;;17.66;69.52
63096;BME280;49184;55.596;37.770;2023-07-24T04:56:30;98965.84;;;17.83;70.70
63096;BME280;49184;55.596;37.770;2023-07-24T04:59:05;98961.72;;;17.96;70.35
63096;BME280;49184;55.596;37.770;2023-07-24T05:01:38;98963.53;;;18.12;69.70
63096;BME280;49184;55.596;37.770;2023-07-24T05:04:05;98965.13;;;18.13;65.88
63096;BME280;49184;55.596;37.770;2023-07-24T05:06:32;98968.88;;;18.27;67.75
63096;BME280;49184;55.596;37.770;2023-07-24T05:09:02;98966.28;;;18.38;65.42
63096;BME280;49184;55.596;37.770;2023-07-24T05:11:27;98968.72;;;18.43;64.23
63096;BME280;49184;55.596;37.770;2023-07-24T05:13:53;98967.97;;;18.46;64.68
63096;BME280;49184;55.596;37.770;2023-07-24T05:16:37;98963.66;;;18.49;65.93
63096;BME280;49184;55.596;37.770;2023-07-24T05:21:57;98981.34;;;18.41;65.91
63096;BME280;49184;55.596;37.770;2023-07-24T05:24:26;98971.50;;;18.43;66.09
63096;BME280;49184;55.596;37.770;2023-07-24T05:27:04;98973.25;;;18.55;66.05
63096;BME280;49184;55.596;37.770;2023-07-24T05:29:30;98980.47;;;18.63;65.84
63096;BME280;49184;55.596;37.770;2023-07-24T05:31:56;98968.44;;;18.78;64.38
63096;BME280;49184;55.596;37.770;2023-07-24T05:34:22;98968.66;;;18.96;62.90
63096;BME280;49184;55.596;37.770;2023-07-24T05:36:49;98966.38;;;19.06;63.60
63096;BME280;49184;55.596;37.770;2023-07-24T05:39:17;98966.53;;;19.20;62.46
63096;BME280;49184;55.596;37.770;2023-07-24T05:41:47;98974.16;;;19.30;62.81
63096;BME280;49184;55.596;37.770;2023-07-24T05:44:26;98969.91;;;19.40;61.93
63096;BME280;49184;55.596;37.770;2023-07-24T05:46:52;98968.41;;;19.46;61.39
63096;BME280;49184;55.596;37.770;2023-07-24T05:49:22;98960.97;;;19.54;61.43
63096;BME280;49184;55.596;37.770;2023-07-24T05:51:52;98962.53;;;19.51;61.11
63096;BME280;49184;55.596;37.770;2023-07-24T05:54:20;98955.81;;;19.56;60.16
63096;BME280;49184;55.596;37.770;2023-07-24T05:56:55;98965.34;;;19.58;60.45
63096;BME280;49184;55.596;37.770;2023-07-24T05:59:21;98963.91;;;19.71;59.24
63096;BME280;49184;55.596;37.770;2023-07-24T06:02:07;98958.94;;;19.91;58.30
63096;BME280;49184;55.596;37.770;2023-07-24T06:04:36;98958.97;;;19.99;57.84
63096;BME280;49184;55.596;37.770;2023-07-24T06:07:09;98955.88;;;20.04;54.41
63096;BME280;49184;55.596;37.770;2023-07-24T06:09:35;98954.34;;;20.13;54.94
63096;BME280;49184;55.596;37.770;2023-07-24T06:12:01;98959.94;;;20.21;55.85
63096;BME280;49184;55.596;37.770;2023-07-24T06:14:29;98963.56;;;20.28;54.90
63096;BME280;49184;55.596;37.770;2023-07-24T06:16:55;98960.03;;;20.38;54.28
63096;BME280;49184;55.596;37.770;2023-07-24T06:19:21;98963.59;;;20.35;52.86
63096;BME280;49184;55.596;37.770;2023-07-24T06:21:50;98958.47;;;20.37;54.77
63096;BME280;49184;55.596;37.770;2023-07-24T06:24:21;98958.94;;;20.50;56.13
63096;BME280;49184;55.596;37.770;2023-07-24T06:26:52;98956.59;;;20.56;52.62
63096;BME280;49184;55.596;37.770;2023-07-24T06:29:19;98966.56;;;20.60;53.74
63096;BME280;49184;55.596;37.770;2023-07-24T06:31:45;98964.06;;;20.48;51.90
63096;BME280;49184;55.596;37.770;2023-07-24T06:34:13;98963.69;;;20.50;52.89
63096;BME280;49184;55.596;37.770;2023-07-24T06:36:38;98959.25;;;20.34;50.65
63096;BME280;49184;55.596;37.770;2023-07-24T06:39:10;98966.34;;;20.28;52.44
63096;BME280;49184;55.596;37.770;2023-07-24T06:41:36;98963.56;;;20.28;52.70
63096;BME280;49184;55.596;37.770;2023-07-24T06:44:01;98961.59;;;20.32;53.61
63096;BME280;49184;55.596;37.770;2023-07-24T06:46:31;98971.50;;;20.30;54.31
63096;BME280;49184;55.596;37.770;2023-07-24T06:48:57;98973.91;;;20.35;53.47
63096;BME280;49184;55.596;37.770;2023-07-24T06:51:24;98973.94;;;20.42;53.97
63096;BME280;49184;55.596;37.770;2023-07-24T06:53:49;98970.09;;;20.54;53.29
63096;BME280;49184;55.596;37.770;2023-07-24T06:56:22;98971.91;;;20.32;52.31
63096;BME280;49184;55.596;37.770;2023-07-24T06:58:49;98962.31;;;20.22;53.68
63096;BME280;49184;55.596;37.770;2023-07-24T07:01:56;98966.25;;;20.17;54.08
63096;BME280;49184;55.596;37.770;2023-07-24T07:04:47;98962.28;;;20.15;55.63
63096;BME280;49184;55.596;37.770;2023-07-24T07:07:49;98962.75;;;20.24;57.40
63096;BME280;49184;55.596;37.770;2023-07-24T07:10:18;98967.50;;;20.24;55.80
63096;BME280;49184;55.596;37.770;2023-07-24T07:13:11;98964.97;;;20.01;54.81
63096;BME280;49184;55.596;37.770;2023-07-24T07:15:44;98974.88;;;20.02;56.61
63096;BME280;49184;55.596;37.770;2023-07-24T07:18:10;98970.38;;;19.86;56.12
63096;BME280;49184;55.596;37.770;2023-07-24T07:21:05;98966.28;;;19.73;56.43
63096;BME280;49184;55.596;37.770;2023-07-24T07:23:58;98962.69;;;19.69;56.18
63096;BME280;49184;55.596;37.770;2023-07-24T07:26:30;98959.69;;;19.88;58.09
63096;BME280;49184;55.596;37.770;2023-07-24T07:29:05;98967.28;;;19.95;57.39
63096;BME280;49184;55.596;37.770;2023-07-24T07:31:37;98963.41;;;20.07;58.74
63096;BME280;49184;55.596;37.770;2023-07-24T07:34:05;98964.69;;;20.16;57.68
63096;BME280;49184;55.596;37.770;2023-07-24T07:36:36;98968.31;;;20.28;56.53
63096;BME280;49184;55.596;37.770;2023-07-24T07:39:08;98962.69;;;20.17;55.63
63096;BME280;49184;55.596;37.770;2023-07-24T07:44:41;98955.88;;;20.04;57.25
63096;BME280;49184;55.596;37.770;2023-07-24T07:47:16;98959.06;;;20.09;57.16
63096;BME280;49184;55.596;37.770;2023-07-24T07:49:42;98964.25;;;20.14;56.28
63096;BME280;49184;55.596;37.770;2023-07-24T07:52:07;98953.53;;;20.13;56.53
63096;BME280;49184;55.596;37.770;2023-07-24T07:54:34;98959.91;;;20.13;55.58
63096;BME280;49184;55.596;37.770;2023-07-24T07:56:59;98957.50;;;20.12;56.40
63096;BME280;49184;55.596;37.770;2023-07-24T07:59:28;98959.13;;;20.16;55.19
63096;BME280;49184;55.596;37.770;2023-07-24T08:01:57;98959.53;;;20.22;57.69
63096;BME280;49184;55.596;37.770;2023-07-24T08:04:23;98954.38;;;20.17;57.80
63096;BME280;49184;55.596;37.770;2023-07-24T08:06:49;98950.81;;;20.20;55.38
63096;BME280;49184;55.596;37.770;2023-07-24T08:09:20;98944.91;;;20.29;58.31
63096;BME280;49184;55.596;37.770;2023-07-24T08:11:47;98948.13;;;20.31;55.92
63096;BME280;49184;55.596;37.770;2023-07-24T08:14:14;98949.59;;;20.14;56.69
63096;BME280;49184;55.596;37.770;2023-07-24T08:16:50;98944.06;;;20.17;57.73
63096;BME280;49184;55.596;37.770;2023-07-24T08:25:29;98936.19;;;20.27;58.26
63096;BME280;49184;55.596;37.770;2023-07-24T08:27:56;98939.38;;;20.29;59.65
63096;BME280;49184;55.596;37.770;2023-07-24T08:30:23;98936.59;;;20.32;58.39
63096;BME280;49184;55.596;37.770;2023-07-24T08:32:49;98935.34;;;20.23;59.24
63096;BME280;49184;55.596;37.770;2023-07-24T08:35:16;98941.69;;;20.19;61.45
63096;BME280;49184;55.596;37.770;2023-07-24T08:37:42;98938.56;;;20.25;62.17
63096;BME280;49184;55.596;37.770;2023-07-24T08:40:11;98937.38;;;20.26;60.80
63096;BME280;49184;55.596;37.770;2023-07-24T08:42:38;98934.19;;;20.24;61.63
63096;BME280;49184;55.596;37.770;2023-07-24T08:45:05;98928.28;;;20.32;61.49
63096;BME280;49184;55.596;37.770;2023-07-24T08:47:34;98937.34;;;20.22;62.13
63096;BME280;49184;55.596;37.770;2023-07-24T08:50:03;98929.00;;;20.22;63.91
63096;BME280;49184;55.596;37.770;2023-07-24T08:52:32;98933.78;;;20.22;64.47
63096;BME280;49184;55.596;37.770;2023-07-24T08:54:59;98934.97;;;20.21;63.73
63096;BME280;49184;55.596;37.770;2023-07-24T08:57:27;98933.72;;;20.14;63.71
63096;BME280;49184;55.596;37.770;2023-07-24T08:59:55;98937.69;;;20.10;63.40
63096;BME280;49184;55.596;37.770;2023-07-24T09:02:21;98936.09;;;20.12;63.94
63096;BME280;49184;55.596;37.770;2023-07-24T09:04:47;98937.72;;;20.17;65.40
63096;BME280;49184;55.596;37.770;2023-07-24T09:07:13;98937.31;;;20.15;63.64
63096;BME280;49184;55.596;37.770;2023-07-24T09:09:39;98933.34;;;20.16;63.01
63096;BME280;49184;55.596;37.770;2023-07-24T09:12:05;98932.81;;;20.00;64.36
63096;BME280;49184;55.596;37.770;2023-07-24T09:14:32;98944.63;;;19.89;64.90
63096;BME280;49184;55.596;37.770;2023-07-24T09:17:05;98931.97;;;19.88;65.15
63096;BME280;49184;55.596;37.770;2023-07-24T09:19:33;98931.25;;;19.99;64.48
63096;BME280;49184;55.596;37.770;2023-07-24T09:22:11;98929.59;;;19.90;65.36
63096;BME280;49184;55.596;37.770;2023-07-24T09:24:48;98932.84;;;20.03;66.93
63096;BME280;49184;55.596;37.770;2023-07-24T09:27:14;98924.19;;;20.12;66.42
63096;BME280;49184;55.596;37.770;2023-07-24T09:29:41;98916.69;;;20.16;64.42
63096;BME280;49184;55.596;37.770;2023-07-24T09:32:07;98910.34;;;20.15;65.66
63096;BME280;49184;55.596;37.770;2023-07-24T09:34:33;98909.97;;;20.17;65.15
63096;BME280;49184;55.596;37.770;2023-07-24T09:36:59;98899.69;;;20.21;66.62
63096;BME280;49184;55.596;37.770;2023-07-24T09:39:25;98902.78;;;20.12;65.65
63096;BME280;49184;55.596;37.770;2023-07-24T09:41:51;98906.22;;;19.91;65.80
63096;BME280;49184;55.596;37.770;2023-07-24T09:44:17;98906.13;;;19.77;67.58
63096;BME280;49184;55.596;37.770;2023-07-24T09:46:43;98901.91;;;19.53;67.71
63096;BME280;49184;55.596;37.770;2023-07-24T09:49:11;98896.75;;;19.48;67.38
63096;BME280;49184;55.596;37.770;2023-07-24T09:51:38;98912.75;;;19.24;69.06
63096;BME280;49184;55.596;37.770;2023-07-24T09:54:06;98900.91;;;19.28;71.53
63096;BME280;49184;55.596;37.770;2023-07-24T09:56:33;98902.19;;;19.37;72.95
63096;BME280;49184;55.596;37.770;2023-07-24T09:59:00;98891.56;;;19.46;73.00
63096;BME280;49184;55.596;37.770;2023-07-24T10:01:28;98897.50;;;19.45;72.15
63096;BME280;49184;55.596;37.770;2023-07-24T10:03:56;98895.19;;;19.51;72.33
63096;BME280;49184;55.596;37.770;2023-07-24T10:06:25;98890.81;;;19.49;72.02
63096;BME280;49184;55.596;37.770;2023-07-24T10:08:52;98893.25;;;19.58;71.20
63096;BME280;49184;55.596;37.770;2023-07-24T10:11:17;98893.56;;;19.49;70.60
63096;BME280;49184;55.596;37.770;2023-07-24T10:13:44;98882.03;;;19.40;71.31
63096;BME280;49184;55.596;37.770;2023-07-24T10:16:11;98881.06;;;19.22;71.89
63096;BME280;49184;55.596;37.770;2023-07-24T10:18:45;98881.81;;;19.19;72.66
63096;BME280;49184;55.596;37.770;2023-07-24T10:21:14;98872.63;;;19.08;71.91
63096;BME280;49184;55.596;37.770;2023-07-24T10:26:33;98866.22;;;19.04;72.01
63096;BME280;49184;55.596;37.770;2023-07-24T10:29:00;98864.75;;;19.13;70.93
63096;BME280;49184;55.596;37.770;2023-07-24T10:31:27;98856.47;;;19.17;70.93
63096;BME280;49184;55.596;37.770;2023-07-24T10:33:56;98850.34;;;19.38;71.86
63096;BME280;49184;55.596;37.770;2023-07-24T10:36:33;98845.63;;;19.93;68.07
63096;BME280;49184;55.596;37.770;2023-07-24T10:38:59;98848.03;;;20.02;67.59
63096;BME280;49184;55.596;37.770;2023-07-24T10:41:36;98843.34;;;20.13;67.60
63096;BME280;49184;55.596;37.770;2023-07-24T10:44:03;98840.50;;;20.06;67.75
63096;BME280;49184;55.596;37.770;2023-07-24T10:46:36;98841.59;;;19.84;69.85
63096;BME280;49184;55.596;37.770;2023-07-24T10:49:02;98838.84;;;19.87;68.55
63096;BME280;49184;55.596;37.770;2023-07-24T10:51:31;98837.66;;;19.88;69.51
63096;BME280;49184;55.596;37.770;2023-07-24T10:53:59;98836.41;;;19.82;70.23
63096;BME280;49184;55.596;37.770;2023-07-24T10:56:25;98842.91;;;20.08;69.49
63096;BME280;49184;55.596;37.770;2023-07-24T10:58:52;98840.31;;;20.44;67.70
63096;BME280;49184;55.596;37.770;2023-07-24T11:01:18;98830.34;;;20.32;68.49
63096;BME280;49184;55.596;37.770;2023-07-24T11:03:44;98836.34;;;20.48;69.14
63096;BME280;49184;55.596;37.770;2023-07-24T11:06:14;98826.00;;;20.34;68.14
63096;BME280;49184;55.596;37.770;2023-07-24T11:08:40;98833.44;;;20.19;68.47
63096;BME280;49184;55.596;37.770;2023-07-24T11:11:06;98828.63;;;20.09;68.49
63096;BME280;49184;55.596;37.770;2023-07-24T11:13:34;98818.03;;;20.29;68.08
63096;BME280;49184;55.596;37.770;2023-07-24T11:16:03;98817.69;;;20.41;66.57
63096;BME280;49184;55.596;37.770;2023-07-24T11:18:30;98828.50;;;20.61;65.79
63096;BME280;49184;55.596;37.770;2023-07-24T11:20:56;98822.16;;;20.71;66.07
63096;BME280;49184;55.596;37.770;2023-07-24T11:23:22;98817.75;;;20.56;65.48
63096;BME280;49184;55.596;37.770;2023-07-24T11:25:51;98811.47;;;20.80;65.05
63096;BME280;49184;55.596;37.770;2023-07-24T11:28:19;98813.06;;;20.96;64.71
63096;BME280;49184;55.596;37.770;2023-07-24T11:30:45;98824.22;;;21.10;64.58
63096;BME280;49184;55.596;37.770;2023-07-24T11:33:14;98811.88;;;20.82;65.51
63096;BME280;49184;55.596;37.770;2023-07-24T11:35:41;98814.56;;;20.50;66.56
63096;BME280;49184;55.596;37.770;2023-07-24T11:38:10;98816.16;;;20.55;65.57
63096;BME280;49184;55.596;37.770;2023-07-24T11:40:37;98815.75;;;20.53;66.86
63096;BME280;49184;55.596;37.770;2023-07-24T11:43:27;98818.16;;;20.54;66.09
63096;BME280;49184;55.596;37.770;2023-07-24T11:45:54;98802.28;;;20.55;67.30
63096;BME280;49184;55.596;37.770;2023-07-24T11:48:21;98807.06;;;20.65;66.70
63096;BME280;49184;55.596;37.770;2023-07-24T11:50:52;98800.72;;;20.61;66.93
63096;BME280;49184;55.596;37.770;2023-07-24T11:53:22;98793.78;;;20.15;68.00
63096;BME280;49184;55.596;37.770;2023-07-24T11:55:50;98797.34;;;20.16;68.64
63096;BME280;49184;55.596;37.770;2023-07-24T11:58:16;98791.88;;;20.27;68.79
63096;BME280;49184;55.596;37.770;2023-07-24T12:00:42;98791.44;;;20.17;68.88
63096;BME280;49184;55.596;37.770;2023-07-24T12:03:08;98793.38;;;20.10;68.85
63096;BME280;49184;55.596;37.770;2023-07-24T12:05:37;98802.88;;;20.09;69.04
63096;BME280;49184;55.596;37.770;2023-07-24T12:08:03;98790.19;;;20.08;69.15
63096;BME280;49184;55.596;37.770;2023-07-24T12:10:29;98787.28;;;19.86;69.62
63096;BME280;49184;55.596;37.770;2023-07-24T12:12:57;98783.75;;;19.93;69.72
63096;BME280;49184;55.596;37.770;2023-07-24T12:15:24;98781.44;;;20.06;69.50
63096;BME280;49184;55.596;37.770;2023-07-24T12:17:50;98775.56;;;20.18;68.57
63096;BME280;49184;55.596;37.770;2023-07-24T12:20:17;98764.00;;;19.98;69.19
63096;BME280;49184;55.596;37.770;2023-07-24T12:22:46;98771.13;;;20.03;69.48
63096;BME280;49184;55.596;37.770;2023-07-24T12:25:12;98765.63;;;20.10;68.77
63096;BME280;49184;55.596;37.770;2023-07-24T12:27:39;98767.53;;;19.91;69.45
63096;BME280;49184;55.596;37.770;2023-07-24T12:30:06;98771.84;;;19.85;69.89
63096;BME280;49184;55.596;37.770;2023-07-24T12:32:32;98767.53;;;19.91;69.47
63096;BME280;49184;55.596;37.770;2023-07-24T12:35:00;98770.28;;;19.88;69.60
63096;BME280;49184;55.596;37.770;2023-07-24T12:37:25;98766.38;;;20.03;69.27
63096;BME280;49184;55.596;37.770;2023-07-24T12:39:52;98758.44;;;19.94;69.00
63096;BME280;49184;55.596;37.770;2023-07-24T12:42:17;98750.38;;;19.71;70.13
63096;BME280;49184;55.596;37.770;2023-07-24T12:44:46;98742.75;;;19.58;71.18
63096;BME280;49184;55.596;37.770;2023-07-24T12:47:12;98738.50;;;19.71;70.72
63096;BME280;49184;55.596;37.770;2023-07-24T12:49:38;98725.66;;;19.48;72.02
63096;BME280;49184;55.596;37.770;2023-07-24T12:52:04;98727.16;;;19.35;72.85
63096;BME280;49184;55.596;37.770;2023-07-24T12:54:30;98719.63;;;19.32;72.56
63096;BME280;49184;55.596;37.770;2023-07-24T12:56:58;98714.00;;;19.18;73.34
63096;BME280;49184;55.596;37.770;2023-07-24T12:59:26;98723.84;;;19.12;74.11
63096;BME280;49184;55.596;37.770;2023-07-24T13:01:52;98711.97;;;19.11;74.61
63096;BME280;49184;55.596;37.770;2023-07-24T13:04:19;98709.53;;;19.02;75.74
63096;BME280;49184;55.596;37.770;2023-07-24T13:06:44;98704.47;;;19.15;75.05
63096;BME280;49184;55.596;37.770;2023-07-24T13:09:11;98711.31;;;19.32;74.34
63096;BME280;49184;55.596;37.770;2023-07-24T13:11:37;98705.06;;;19.49;73.16
63096;BME280;49184;55.596;37.770;2023-07-24T13:14:03;98712.56;;;19.45;73.40
63096;BME280;49184;55.596;37.770;2023-07-24T13:16:29;98712.38;;;19.76;71.84
63096;BME280;49184;55.596;37.770;2023-07-24T13:18:55;98709.69;;;19.93;71.25
63096;BME280;49184;55.596;37.770;2023-07-24T13:21:21;98709.56;;;19.72;72.97
63096;BME280;49184;55.596;37.770;2023-07-24T13:23:49;98696.78;;;19.57;73.14
63096;BME280;49184;55.596;37.770;2023-07-24T13:26:15;98701.13;;;19.47;73.41
63096;BME280;49184;55.596;37.770;2023-07-24T13:28:42;98694.13;;;19.67;72.53
63096;BME280;49184;55.596;37.770;2023-07-24T13:31:11;98691.66;;;19.59;72.76
63096;BME280;49184;55.596;37.770;2023-07-24T13:33:38;98681.56;;;19.99;70.60
63096;BME280;49184;55.596;37.770;2023-07-24T13:36:04;98696.41;;;19.55;72.38
63096;BME280;49184;55.596;37.770;2023-07-24T13:38:31;98689.69;;;19.63;72.22
63096;BME280;49184;55.596;37.770;2023-07-24T13:40:58;98685.84;;;19.78;71.66
63096;BME280;49184;55.596;37.770;2023-07-24T13:43:25;98683.06;;;19.78;72.05
63096;BME280;49184;55.596;37.770;2023-07-24T13:45:51;98683.09;;;19.89;72.01
63096;BME280;49184;55.596;37.770;2023-07-24T13:48:17;98683.13;;;19.92;71.46
63096;BME280;49184;55.596;37.770;2023-07-24T13:50:43;98683.53;;;20.02;71.46
63096;BME280;49184;55.596;37.770;2023-07-24T13:53:10;98688.66;;;19.92;72.20
63096;BME280;49184;55.596;37.770;2023-07-24T13:55:37;98672.88;;;20.11;70.73